Time;durP1;ratioP1;P1;durP2;ratioP2;P2;SDS_P1;SDS_P2;PMS_P1;PMS_P2;Temp;Humidity;BMP_temperature;BMP_pressure;BME280_temperature;BME280_humidity;BME280_pressure;Samples;Min_cycle;Max_cycle;Signal;HPM_P1;HPM_P2
2022/01/05 00:00:53;;;;;;;2.60;1.20;;;;;;;17.91;64.37;97905.59;3095002;28;20567;-59
2022/01/05 00:02:25;;;;;;;1.80;1.45;;;;;;;17.90;64.47;97902.09;3099676;28;20046;-56
2022/01/05 00:03:56;;;;;;;2.45;1.02;;;;;;;17.89;64.65;97900.47;3102956;28;20070;-56
2022/01/05 00:05:29;;;;;;;1.80;1.25;;;;;;;17.87;64.69;97897.19;3098512;28;20062;-53
2022/01/05 00:07:01;;;;;;;0.73;0.73;;;;;;;17.88;64.48;97898.00;3102628;28;20415;-56
2022/01/05 00:08:33;;;;;;;2.20;1.77;;;;;;;17.86;64.53;97899.03;3100800;28;20116;-58
2022/01/05 00:10:06;;;;;;;2.75;1.42;;;;;;;17.85;64.43;97889.34;3097462;28;20659;-57
2022/01/05 00:11:38;;;;;;;1.23;0.68;;;;;;;17.84;64.58;97894.94;3101477;28;20057;-55
2022/01/05 00:13:10;;;;;;;1.13;1.02;;;;;;;17.84;64.52;97905.66;3095311;28;20043;-55
2022/01/05 00:14:42;;;;;;;2.55;1.23;;;;;;;17.82;64.65;97897.00;3097720;28;20046;-57
2022/01/05 00:16:14;;;;;;;1.27;0.82;;;;;;;17.81;64.67;97900.72;3095572;28;20054;-58
2022/01/05 00:17:45;;;;;;;3.13;1.25;;;;;;;17.80;64.67;97897.22;3096818;28;20045;-51
2022/01/05 00:19:17;;;;;;;2.25;1.00;;;;;;;17.78;64.70;97893.94;3100075;28;20049;-59
2022/01/05 00:20:51;;;;;;;2.00;0.65;;;;;;;17.78;64.53;97896.63;3101711;28;20104;-57
2022/01/05 00:22:23;;;;;;;1.20;0.90;;;;;;;17.77;64.73;97892.25;3095442;28;20058;-55
2022/01/05 00:23:55;;;;;;;1.40;1.30;;;;;;;17.78;64.53;97882.34;3102352;28;20826;-57
2022/01/05 00:25:27;;;;;;;0.50;0.50;;;;;;;17.78;64.50;97885.03;3099032;28;20053;-56
2022/01/05 00:26:59;;;;;;;1.08;0.70;;;;;;;17.76;64.50;97887.09;3093730;28;20046;-54
2022/01/05 00:28:31;;;;;;;1.77;0.88;;;;;;;17.76;64.54;97884.44;3097028;28;20492;-58
2022/01/05 00:30:04;;;;;;;1.02;0.68;;;;;;;17.72;64.70;97884.03;3100039;28;20116;-54
2022/01/05 00:31:35;;;;;;;2.67;1.20;;;;;;;17.72;64.69;97878.69;3094909;28;20046;-56
2022/01/05 00:33:07;;;;;;;1.75;1.08;;;;;;;17.71;64.57;97877.03;3098187;28;20046;-54
2022/01/05 00:34:39;;;;;;;1.17;0.63;;;;;;;17.71;64.77;97871.66;3101653;28;20104;-57
2022/01/05 00:36:12;;;;;;;1.42;1.27;;;;;;;17.71;64.75;97874.34;3095782;28;20058;-55
2022/01/05 00:37:44;;;;;;;1.83;0.90;;;;;;;17.69;64.74;97868.38;3097388;28;20050;-55
2022/01/05 00:39:16;;;;;;;1.65;0.98;;;;;;;17.67;64.75;97859.72;3097891;28;20123;-57
2022/01/05 00:40:48;;;;;;;1.35;1.00;;;;;;;17.66;64.68;97860.75;3101848;28;20050;-56
2022/01/05 00:42:20;;;;;;;1.60;1.17;;;;;;;17.67;64.78;97864.28;3097767;28;20140;-53
2022/01/05 00:43:52;;;;;;;0.90;0.65;;;;;;;17.66;64.79;97866.09;3099316;28;20746;-54
2022/01/05 00:45:24;;;;;;;2.63;1.27;;;;;;;17.64;64.81;97866.34;3096162;28;20425;-57
2022/01/05 00:46:56;;;;;;;2.20;1.10;;;;;;;17.62;64.68;97857.69;3100533;28;20050;-54
2022/01/05 00:48:29;;;;;;;1.10;0.90;;;;;;;17.62;64.70;97846.97;3087869;28;20054;-56
2022/01/05 00:50:01;;;;;;;0.73;0.73;;;;;;;17.61;64.72;97848.00;3098527;28;20046;-57
2022/01/05 00:51:35;;;;;;;2.25;0.75;;;;;;;17.61;64.74;97848.00;3100563;28;20098;-56
2022/01/05 00:53:06;;;;;;;1.55;1.00;;;;;;;17.60;64.83;97850.88;3097809;28;20049;-53
2022/01/05 00:54:38;;;;;;;1.20;0.70;;;;;;;17.58;64.80;97839.59;3098776;28;20050;-56
2022/01/05 00:56:09;;;;;;;3.28;1.80;;;;;;;17.57;64.78;97830.69;3092670;28;20046;-53
2022/01/05 00:57:41;;;;;;;1.00;0.90;;;;;;;17.56;64.83;97823.69;3094639;28;20065;-58
2022/01/05 00:59:12;;;;;;;2.00;1.10;;;;;;;17.55;64.77;97819.38;3099034;28;20046;-56
2022/01/05 01:00:44;;;;;;;1.08;0.90;;;;;;;17.55;64.85;97823.91;3096833;28;20054;-54
2022/01/05 01:02:15;;;;;;;1.42;1.08;;;;;;;17.54;64.83;97824.94;3096009;28;20061;-56
2022/01/05 01:03:47;;;;;;;0.73;0.73;;;;;;;17.54;64.81;97825.75;3096901;28;20046;-56
2022/01/05 01:05:20;;;;;;;1.50;0.90;;;;;;;17.52;64.92;97827.84;3095760;28;20150;-56
2022/01/05 01:06:53;;;;;;;2.03;1.02;;;;;;;17.52;64.84;97825.16;3093019;28;20054;-52
2022/01/05 01:08:25;;;;;;;1.30;0.80;;;;;;;17.51;64.85;97825.38;3085295;28;20120;-56
2022/01/05 01:09:56;;;;;;;0.98;0.90;;;;;;;17.50;64.82;97821.88;3095264;28;20061;-57
2022/01/05 01:11:28;;;;;;;0.98;0.88;;;;;;;17.49;64.87;97822.09;3094181;28;20727;-56
2022/01/05 01:13:00;;;;;;;1.08;0.90;;;;;;;17.49;64.75;97820.22;3098863;28;20074;-54
2022/01/05 01:14:32;;;;;;;2.60;1.00;;;;;;;17.48;64.95;97821.28;3093457;28;20103;-56
2022/01/05 01:16:04;;;;;;;3.28;0.90;;;;;;;17.46;64.95;97823.34;3100490;28;20666;-58
2022/01/05 01:17:36;;;;;;;0.80;0.80;;;;;;;17.45;64.85;97824.38;3096704;28;20053;-58
2022/01/05 01:19:09;;;;;;;1.45;0.95;;;;;;;17.45;64.83;97815.53;3098220;28;20061;-56
2022/01/05 01:20:42;;;;;;;1.38;0.90;;;;;;;17.43;64.92;97815.72;3097921;28;20463;-54
2022/01/05 01:22:15;;;;;;;1.63;1.10;;;;;;;17.43;64.98;97805.00;3097999;28;20042;-54
2022/01/05 01:23:55;;;;;;;1.13;0.80;;;;;;;17.41;65.00;97799.88;3091342;28;20513;-56
2022/01/05 01:25:26;;;;;;;1.45;0.75;;;;;;;17.40;64.82;97794.72;3093076;28;20050;-53
2022/01/05 01:26:58;;;;;;;1.27;1.00;;;;;;;17.39;64.89;97801.13;3096926;28;20046;-58
2022/01/05 01:28:30;;;;;;;1.92;0.70;;;;;;;17.39;64.89;97803.81;3093216;28;20062;-55
2022/01/05 01:30:02;;;;;;;2.13;1.15;;;;;;;17.37;65.04;97798.66;3095012;28;20049;-53
2022/01/05 01:31:34;;;;;;;1.02;0.85;;;;;;;17.37;64.90;97797.84;3091196;28;20050;-55
2022/01/05 01:33:06;;;;;;;0.90;0.77;;;;;;;17.36;65.00;97788.16;3098712;28;20112;-55
2022/01/05 01:34:37;;;;;;;1.60;0.95;;;;;;;17.36;64.94;97788.16;3093450;28;20050;-56
2022/01/05 01:36:10;;;;;;;1.42;0.95;;;;;;;17.35;64.95;97783.81;3093486;28;20077;-55
2022/01/05 01:37:43;;;;;;;2.22;0.98;;;;;;;17.34;65.06;97787.53;3096707;28;20072;-53
2022/01/05 01:39:15;;;;;;;1.98;0.90;;;;;;;17.33;65.02;97791.28;3096078;28;20408;-52
2022/01/05 01:40:46;;;;;;;0.75;0.70;;;;;;;17.32;64.95;97779.72;3092503;28;20116;-54
2022/01/05 01:42:18;;;;;;;0.93;0.90;;;;;;;17.32;64.99;97778.91;3095855;28;20116;-57
2022/01/05 01:43:50;;;;;;;1.23;1.13;;;;;;;17.31;64.98;97777.25;3098240;28;20050;-49
2022/01/05 01:45:22;;;;;;;1.38;0.85;;;;;;;17.30;65.02;97770.25;3093919;28;20073;-51
2022/01/05 01:46:54;;;;;;;1.85;1.25;;;;;;;17.30;64.97;97770.25;3098010;28;20065;-55
2022/01/05 01:48:26;;;;;;;0.45;0.45;;;;;;;17.29;65.03;97773.97;3091673;28;20103;-57
2022/01/05 01:49:58;;;;;;;1.60;1.30;;;;;;;17.28;64.90;97783.88;3098441;28;20479;-52
2022/01/05 01:51:30;;;;;;;1.73;0.75;;;;;;;17.27;65.05;97781.41;3095167;28;20109;-55
2022/01/05 01:53:03;;;;;;;1.77;1.42;;;;;;;17.26;65.05;97785.13;3097943;28;20077;-52
2022/01/05 01:54:36;;;;;;;2.90;0.93;;;;;;;17.25;64.99;97783.50;3096594;28;20053;-54
2022/01/05 01:56:11;;;;;;;1.55;0.90;;;;;;;17.25;64.99;97784.31;3097335;28;20057;-57
2022/01/05 01:57:45;;;;;;;1.15;0.90;;;;;;;17.26;64.86;97785.13;3094183;28;20046;-56
2022/01/05 01:59:17;;;;;;;1.50;0.68;;;;;;;17.25;64.97;97784.31;3097841;28;20038;-55
2022/01/05 02:00:49;;;;;;;2.33;0.93;;;;;;;17.24;65.01;97779.16;3096437;28;20097;-56
2022/01/05 02:02:22;;;;;;;3.22;1.00;;;;;;;17.23;64.86;97778.34;3092234;28;20816;-54
2022/01/05 02:03:54;;;;;;;2.25;0.70;;;;;;;17.22;64.99;97773.19;3098308;28;20047;-57
2022/01/05 02:05:26;;;;;;;1.25;0.80;;;;;;;17.22;65.01;97773.19;3092743;28;22375;-55
2022/01/05 02:06:58;;;;;;;0.63;0.57;;;;;;;17.21;65.00;97769.69;3094905;28;20524;-54
2022/01/05 02:08:31;;;;;;;1.42;1.25;;;;;;;17.23;64.87;97774.84;3093719;28;20049;-55
2022/01/05 02:10:08;;;;;;;2.17;0.85;;;;;;;17.22;64.80;97781.22;3094149;28;20548;-57
2022/01/05 02:11:41;;;;;;;0.70;0.70;;;;;;;17.20;64.90;97771.53;3088069;28;20063;-57
2022/01/05 02:13:13;;;;;;;1.02;0.77;;;;;;;17.19;64.99;97772.59;3096676;28;20049;-53
2022/01/05 02:14:44;;;;;;;2.00;1.00;;;;;;;17.19;64.92;97769.09;3099651;28;20054;-54
2022/01/05 02:16:20;;;;;;;1.10;0.80;;;;;;;17.17;65.16;97771.97;3095211;28;20054;-56
2022/01/05 02:17:57;;;;;;;0.90;0.88;;;;;;;17.17;64.92;97768.47;3095841;28;20065;-52
2022/01/05 02:19:28;;;;;;;0.93;0.88;;;;;;;17.17;64.95;97771.16;3094502;28;20615;-57
2022/01/05 02:21:02;;;;;;;2.67;1.02;;;;;;;17.15;65.01;97766.00;3095993;28;20050;-57
2022/01/05 02:22:34;;;;;;;1.23;1.13;;;;;;;17.14;65.09;97761.69;3096382;28;20046;-57
2022/01/05 02:24:08;;;;;;;0.80;0.80;;;;;;;17.14;64.91;97759.00;3100154;28;20050;-56
2022/01/05 02:25:40;;;;;;;3.53;0.77;;;;;;;17.13;65.01;97754.69;3098847;28;20534;-51
2022/01/05 02:27:12;;;;;;;1.52;0.70;;;;;;;17.13;64.99;97752.03;3097141;28;20754;-53
2022/01/05 02:28:44;;;;;;;0.98;0.75;;;;;;;17.12;64.83;97750.34;3104250;28;20064;-52
2022/01/05 02:30:21;;;;;;;1.20;0.73;;;;;;;17.11;65.02;97746.03;3098542;28;20601;-54
2022/01/05 02:31:52;;;;;;;1.70;0.90;;;;;;;17.11;64.96;97738.00;3097107;28;20104;-54
2022/01/05 02:33:25;;;;;;;2.08;0.90;;;;;;;17.11;64.95;97732.66;3095982;28;20053;-55
2022/01/05 02:34:57;;;;;;;0.88;0.75;;;;;;;17.11;64.98;97737.19;3096478;28;20053;-56
2022/01/05 02:36:30;;;;;;;2.15;0.95;;;;;;;17.09;64.97;97734.72;3096473;28;20050;-54
2022/01/05 02:38:02;;;;;;;1.00;0.90;;;;;;;17.08;64.91;97734.94;3100216;28;20046;-57
2022/01/05 02:39:34;;;;;;;1.38;0.98;;;;;;;17.08;64.95;97734.94;3102053;28;20046;-58
2022/01/05 02:41:08;;;;;;;1.10;0.68;;;;;;;17.07;64.96;97730.59;3099500;28;20050;-57
2022/01/05 02:42:40;;;;;;;1.88;0.88;;;;;;;17.07;65.09;97735.97;3100435;28;20082;-50
2022/01/05 02:44:12;;;;;;;1.60;1.15;;;;;;;17.05;65.07;97736.19;3101470;28;20119;-55
2022/01/05 02:45:44;;;;;;;0.85;0.85;;;;;;;17.05;64.96;97732.69;3100045;28;20054;-51
2022/01/05 02:47:16;;;;;;;1.00;0.73;;;;;;;17.04;65.03;97739.09;3097374;28;20120;-50
2022/01/05 02:48:50;;;;;;;0.90;0.70;;;;;;;17.02;65.06;97733.94;3097812;28;20049;-54
2022/01/05 02:50:23;;;;;;;1.60;0.90;;;;;;;17.04;64.95;97742.56;3094031;28;20992;-51
2022/01/05 02:51:56;;;;;;;1.67;1.33;;;;;;;17.04;64.95;97739.91;3101667;28;20587;-56
2022/01/05 02:53:28;;;;;;;0.82;0.82;;;;;;;17.02;65.02;97736.63;3101585;28;20058;-52
2022/01/05 02:55:00;;;;;;;2.40;0.88;;;;;;;17.03;64.93;97732.91;3099038;28;20042;-51
2022/01/05 02:56:32;;;;;;;1.52;1.00;;;;;;;17.01;64.83;97724.25;3097229;28;20134;-59
2022/01/05 02:58:04;;;;;;;1.10;0.63;;;;;;;17.02;65.00;97722.38;3096203;28;20543;-58
2022/01/05 02:59:36;;;;;;;1.85;1.10;;;;;;;17.01;64.98;97720.75;3091169;28;20050;-55
2022/01/05 03:01:08;;;;;;;1.40;0.90;;;;;;;16.98;64.96;97717.47;3098694;28;20054;-56
2022/01/05 03:02:39;;;;;;;1.92;0.90;;;;;;;16.99;65.00;97710.25;3096487;28;20064;-54
2022/01/05 03:04:11;;;;;;;1.02;0.80;;;;;;;16.98;65.06;97709.44;3099675;28;20046;-55
2022/01/05 03:05:43;;;;;;;1.10;1.05;;;;;;;16.97;65.01;97713.16;3099495;28;20053;-55
2022/01/05 03:07:17;;;;;;;0.80;0.80;;;;;;;16.96;65.00;97705.31;3101859;28;20038;-58
2022/01/05 03:08:49;;;;;;;1.67;1.02;;;;;;;16.96;64.93;97705.31;3094781;28;20054;-57
2022/01/05 03:10:21;;;;;;;1.08;0.95;;;;;;;16.95;65.03;97709.03;3097140;28;20058;-52
2022/01/05 03:11:53;;;;;;;1.23;0.70;;;;;;;16.95;65.03;97706.38;3094966;28;20523;-55
2022/01/05 03:13:25;;;;;;;0.68;0.68;;;;;;;16.93;64.96;97701.22;3100408;28;20046;-55
2022/01/05 03:14:56;;;;;;;1.00;0.70;;;;;;;16.93;65.07;97692.38;3092744;28;20041;-57
2022/01/05 03:16:28;;;;;;;0.93;0.60;;;;;;;16.94;64.96;97684.13;3099270;28;20060;-55
2022/01/05 03:18:00;;;;;;;1.45;1.33;;;;;;;16.93;65.07;97678.97;3098562;28;20053;-57
2022/01/05 03:19:32;;;;;;;0.95;0.90;;;;;;;16.92;64.99;97674.66;3097050;28;20054;-55
2022/01/05 03:21:04;;;;;;;1.17;0.85;;;;;;;16.92;65.02;97675.47;3100877;28;20050;-51
2022/01/05 03:22:37;;;;;;;1.38;1.08;;;;;;;16.89;65.01;97669.75;3097221;28;20112;-56
2022/01/05 03:24:09;;;;;;;1.27;0.93;;;;;;;16.90;65.03;97668.69;3098520;28;20403;-56
2022/01/05 03:25:41;;;;;;;1.48;0.80;;;;;;;16.89;65.12;97664.38;3099096;28;20061;-55
2022/01/05 03:27:13;;;;;;;0.65;0.65;;;;;;;16.88;64.98;97654.69;3098434;28;20133;-53
2022/01/05 03:28:44;;;;;;;1.40;0.90;;;;;;;16.86;65.11;97657.59;3102464;28;20050;-55
2022/01/05 03:30:19;;;;;;;1.38;1.08;;;;;;;16.85;65.10;97655.94;3096345;28;20698;-54
2022/01/05 03:31:51;;;;;;;1.60;0.93;;;;;;;16.86;65.07;97656.78;3098765;28;20054;-55
2022/01/05 03:33:24;;;;;;;1.73;1.52;;;;;;;16.85;65.06;97653.25;3097029;28;20050;-55
2022/01/05 03:34:56;;;;;;;1.65;1.00;;;;;;;16.84;65.11;97659.66;3095612;28;20050;-53
2022/01/05 03:36:28;;;;;;;1.38;1.27;;;;;;;16.82;65.07;97652.88;3097284;28;20062;-51
2022/01/05 03:38:00;;;;;;;2.00;1.45;;;;;;;16.83;65.10;97657.22;3101392;28;20413;-54
2022/01/05 03:39:32;;;;;;;1.02;0.80;;;;;;;16.83;65.00;97657.22;3099029;28;20563;-56
2022/01/05 03:41:04;;;;;;;1.58;0.85;;;;;;;16.83;65.01;97649.19;3100358;28;20455;-52
2022/01/05 03:42:36;;;;;;;1.00;0.82;;;;;;;16.81;65.15;97651.25;3087952;28;20049;-53
2022/01/05 03:44:08;;;;;;;1.38;1.10;;;;;;;16.79;65.20;97640.75;3086388;28;20065;-59
2022/01/05 03:45:40;;;;;;;1.23;0.82;;;;;;;16.79;65.15;97639.91;3092666;28;20552;-56
2022/01/05 03:47:12;;;;;;;0.68;0.68;;;;;;;16.79;65.23;97650.63;3087982;28;20109;-56
2022/01/05 03:48:44;;;;;;;1.13;1.00;;;;;;;16.78;65.22;97644.47;3085751;28;20097;-54
2022/01/05 03:50:16;;;;;;;0.73;0.73;;;;;;;16.78;65.23;97647.16;3085954;28;20478;-55
2022/01/05 03:51:48;;;;;;;1.27;1.08;;;;;;;16.77;65.18;97639.31;3078544;28;20052;-55
2022/01/05 03:53:21;;;;;;;0.82;0.70;;;;;;;16.76;65.20;97641.13;3084933;28;20054;-53
2022/01/05 03:54:53;;;;;;;1.05;0.82;;;;;;;16.75;65.18;97639.50;3086368;28;20102;-57
2022/01/05 03:56:25;;;;;;;1.40;0.85;;;;;;;16.75;65.22;97636.84;3086334;28;20053;-58
2022/01/05 03:57:57;;;;;;;1.42;0.82;;;;;;;16.75;65.08;97634.16;3090347;28;20645;-54
2022/01/05 03:59:29;;;;;;;1.45;1.08;;;;;;;16.73;65.21;97631.69;3085071;28;20050;-56
2022/01/05 04:01:01;;;;;;;2.25;0.90;;;;;;;16.73;65.10;97630.88;3085652;28;20116;-57
2022/01/05 04:02:32;;;;;;;0.85;0.80;;;;;;;16.72;65.19;97630.06;3082753;28;20049;-57
2022/01/05 04:04:04;;;;;;;1.33;0.90;;;;;;;16.72;65.31;97630.06;3085372;28;20046;-58
2022/01/05 04:05:36;;;;;;;1.27;0.90;;;;;;;16.71;65.18;97627.56;3080450;28;20113;-58
2022/01/05 04:07:08;;;;;;;2.70;0.70;;;;;;;16.70;65.18;97624.09;3088579;28;20058;-58
2022/01/05 04:08:42;;;;;;;0.98;0.77;;;;;;;16.69;65.18;97619.78;3086973;28;20145;-58
2022/01/05 04:10:13;;;;;;;0.77;0.77;;;;;;;16.69;65.17;97617.09;3082140;28;20056;-53
2022/01/05 04:11:45;;;;;;;0.82;0.70;;;;;;;16.68;65.33;97614.63;3085085;28;20549;-54
2022/01/05 04:13:18;;;;;;;0.90;0.80;;;;;;;16.67;65.24;97611.13;3087549;28;20067;-56
2022/01/05 04:14:50;;;;;;;1.50;0.80;;;;;;;16.66;65.25;97609.50;3083909;28;20081;-52
2022/01/05 04:16:21;;;;;;;1.25;1.10;;;;;;;16.66;65.35;97609.50;3084709;28;20053;-55
2022/01/05 04:17:52;;;;;;;1.10;0.90;;;;;;;16.66;65.29;97606.81;3082579;28;20055;-55
2022/01/05 04:19:24;;;;;;;0.82;0.65;;;;;;;16.65;65.30;97612.38;3085604;28;20529;-56
2022/01/05 04:20:56;;;;;;;0.93;0.70;;;;;;;16.65;65.24;97596.31;3085124;28;20074;-54
2022/01/05 04:22:28;;;;;;;0.65;0.65;;;;;;;16.66;65.08;97604.16;3082890;28;20772;-54
2022/01/05 04:24:02;;;;;;;0.68;0.68;;;;;;;16.66;65.32;97598.78;3087125;28;20074;-57
2022/01/05 04:25:34;;;;;;;0.85;0.80;;;;;;;16.66;65.25;97597.94;3083642;28;20401;-55
2022/01/05 04:27:06;;;;;;;1.50;1.08;;;;;;;16.66;65.23;97597.94;3090569;28;20523;-56
2022/01/05 04:28:40;;;;;;;1.75;0.80;;;;;;;16.65;65.00;97596.31;3085765;28;20050;-55
2022/01/05 04:30:13;;;;;;;1.70;0.88;;;;;;;16.65;65.32;97597.13;3082791;28;20046;-58
2022/01/05 04:31:45;;;;;;;0.85;0.73;;;;;;;16.64;65.25;97595.50;3083759;28;20054;-55
2022/01/05 04:33:17;;;;;;;0.60;0.60;;;;;;;16.64;65.26;97590.16;3084745;28;20046;-55
2022/01/05 04:34:49;;;;;;;2.08;0.90;;;;;;;16.64;65.33;97586.66;3085966;28;20110;-56
2022/01/05 04:36:21;;;;;;;2.40;0.90;;;;;;;16.63;65.28;97583.16;3078769;28;20050;-54
2022/01/05 04:37:53;;;;;;;1.50;1.15;;;;;;;16.63;65.34;97580.47;3085654;28;20050;-56
2022/01/05 04:39:26;;;;;;;1.17;0.82;;;;;;;16.62;65.36;97578.00;3087354;28;20607;-58
2022/01/05 04:40:58;;;;;;;0.55;0.55;;;;;;;16.62;65.36;97586.03;3086000;28;20100;-54
2022/01/05 04:42:30;;;;;;;1.13;0.85;;;;;;;16.62;65.49;97581.50;3083390;28;20128;-51
2022/01/05 04:44:02;;;;;;;1.67;1.13;;;;;;;16.62;65.40;97591.41;3086102;28;20108;-53
2022/01/05 04:45:33;;;;;;;1.25;0.80;;;;;;;16.61;65.32;97590.56;3083374;28;20049;-56
2022/01/05 04:47:07;;;;;;;0.73;0.73;;;;;;;16.62;65.44;97591.41;3085736;28;20046;-56
2022/01/05 04:48:39;;;;;;;0.85;0.75;;;;;;;16.62;65.47;97591.41;3091361;28;20060;-55
2022/01/05 04:50:14;;;;;;;1.08;0.98;;;;;;;16.61;65.32;97593.25;3098666;28;20049;-54
2022/01/05 04:51:46;;;;;;;1.73;1.40;;;;;;;16.62;65.43;97600.25;3096093;28;20621;-55
2022/01/05 04:53:19;;;;;;;1.45;1.00;;;;;;;16.61;65.41;97595.94;3095663;28;20050;-56
2022/01/05 04:54:52;;;;;;;0.90;0.88;;;;;;;16.61;65.47;97597.78;3097064;28;20053;-51
2022/01/05 04:56:24;;;;;;;1.95;0.90;;;;;;;16.61;65.42;97589.75;3096599;28;20057;-54
2022/01/05 04:57:56;;;;;;;1.08;0.98;;;;;;;16.60;65.47;97593.47;3098561;28;20368;-54
2022/01/05 04:59:28;;;;;;;0.73;0.73;;;;;;;16.60;65.42;97594.28;3095866;28;20456;-55
2022/01/05 05:00:59;;;;;;;0.73;0.65;;;;;;;16.61;65.41;97593.25;3100374;28;20329;-55
2022/01/05 05:02:31;;;;;;;0.70;0.57;;;;;;;16.59;65.31;97592.66;3090586;28;20046;-54
2022/01/05 05:04:03;;;;;;;1.45;0.95;;;;;;;16.59;65.35;97583.78;3101109;28;20512;-53
2022/01/05 05:05:35;;;;;;;0.90;0.60;;;;;;;16.60;65.33;97583.56;3095934;28;20479;-55
2022/01/05 05:07:08;;;;;;;1.13;0.82;;;;;;;16.59;65.48;97579.25;3093934;28;20108;-55
2022/01/05 05:08:39;;;;;;;1.33;1.00;;;;;;;16.59;65.48;97567.72;3090016;28;20062;-53
2022/01/05 05:10:13;;;;;;;1.23;0.73;;;;;;;16.60;65.51;97572.03;3096827;28;20997;-55
2022/01/05 05:11:45;;;;;;;0.70;0.63;;;;;;;16.61;65.56;97569.16;3097235;28;20058;-55
2022/01/05 05:13:17;;;;;;;1.58;0.70;;;;;;;16.63;65.50;97563.56;3098477;28;20073;-53
2022/01/05 05:14:48;;;;;;;0.70;0.52;;;;;;;16.67;65.53;97562.94;3098832;28;20743;-53
2022/01/05 05:16:20;;;;;;;2.08;1.35;;;;;;;16.71;65.53;97556.09;3096364;28;20050;-55
2022/01/05 05:17:52;;;;;;;0.90;0.77;;;;;;;16.77;65.42;97549.13;3096610;28;20465;-55
2022/01/05 05:19:24;;;;;;;0.88;0.70;;;;;;;16.83;65.29;97556.28;3097396;28;20104;-56
2022/01/05 05:20:56;;;;;;;0.60;0.60;;;;;;;16.89;65.21;97551.91;3098704;28;20630;-55
2022/01/05 05:22:28;;;;;;;1.10;0.70;;;;;;;16.91;65.23;97541.75;3099724;28;20058;-55
2022/01/05 05:24:00;;;;;;;1.10;0.90;;;;;;;16.96;65.29;97540.06;3099889;28;20382;-53
2022/01/05 05:25:33;;;;;;;0.95;0.68;;;;;;;17.01;65.09;97534.06;3087988;28;20603;-54
2022/01/05 05:27:06;;;;;;;0.98;0.40;;;;;;;17.05;65.05;97534.44;3097992;28;20527;-56
2022/01/05 05:28:38;;;;;;;1.15;0.90;;;;;;;17.09;65.02;97538.31;3088340;28;20081;-53
2022/01/05 05:30:10;;;;;;;0.75;0.75;;;;;;;17.12;65.01;97533.34;3086953;28;20058;-53
2022/01/05 05:31:42;;;;;;;0.90;0.50;;;;;;;17.18;65.00;97537.00;3087294;28;20050;-53
2022/01/05 05:33:14;;;;;;;0.90;0.60;;;;;;;17.22;64.85;97537.38;3094067;28;20057;-55
2022/01/05 05:34:46;;;;;;;1.40;0.55;;;;;;;17.25;64.78;97531.59;3092365;28;20050;-55
2022/01/05 05:36:18;;;;;;;0.40;0.40;;;;;;;17.27;64.84;97527.63;3097488;28;20646;-55
2022/01/05 05:37:50;;;;;;;1.27;0.68;;;;;;;17.29;64.85;97522.88;3098114;28;20085;-52
2022/01/05 05:39:22;;;;;;;0.70;0.60;;;;;;;17.33;64.78;97520.59;3095857;28;20148;-53
2022/01/05 05:40:55;;;;;;;0.50;0.50;;;;;;;17.37;64.61;97527.13;3086968;28;20045;-56
2022/01/05 05:42:27;;;;;;;0.80;0.60;;;;;;;17.39;64.65;97517.00;3092895;28;20427;-55
2022/01/05 05:43:59;;;;;;;1.63;0.80;;;;;;;17.41;64.61;97521.09;3099529;28;20050;-54
2022/01/05 05:45:31;;;;;;;1.15;0.55;;;;;;;17.43;64.67;97510.16;3097163;28;20843;-52
2022/01/05 05:47:05;;;;;;;1.10;0.60;;;;;;;17.44;64.62;97517.16;3099860;28;20661;-53
2022/01/05 05:48:37;;;;;;;1.05;0.77;;;;;;;17.45;64.57;97510.75;3078411;28;20069;-54
2022/01/05 05:50:11;;;;;;;0.65;0.63;;;;;;;17.47;64.44;97514.03;3079687;28;20054;-56
2022/01/05 05:51:43;;;;;;;0.90;0.60;;;;;;;17.52;64.38;97522.19;3089685;28;20066;-54
2022/01/05 05:53:16;;;;;;;0.63;0.50;;;;;;;17.52;64.31;97511.47;3084203;28;20663;-54
2022/01/05 05:54:47;;;;;;;0.98;0.80;;;;;;;17.53;64.33;97513.13;3079244;28;20266;-54
2022/01/05 05:56:21;;;;;;;0.88;0.88;;;;;;;17.53;64.44;97513.13;3084181;28;20051;-55
2022/01/05 05:57:52;;;;;;;1.55;0.60;;;;;;;17.55;64.40;97513.75;3081048;28;20054;-53
2022/01/05 05:59:24;;;;;;;0.85;0.60;;;;;;;17.57;64.32;97513.50;3081590;28;20051;-55
2022/01/05 06:00:56;;;;;;;0.95;0.60;;;;;;;17.55;64.35;97505.69;3085181;28;20046;-53
2022/01/05 06:02:28;;;;;;;0.55;0.50;;;;;;;17.58;64.34;97499.88;3085259;28;20059;-54
2022/01/05 06:04:00;;;;;;;0.85;0.70;;;;;;;17.60;64.21;97500.44;3084697;28;20656;-55
2022/01/05 06:05:32;;;;;;;1.52;0.80;;;;;;;17.61;64.34;97512.03;3080500;28;21412;-56
2022/01/05 06:07:04;;;;;;;0.55;0.50;;;;;;;17.63;64.17;97509.91;3082838;28;20058;-53
2022/01/05 06:08:36;;;;;;;1.02;0.80;;;;;;;17.61;64.13;97510.16;3082362;28;20042;-53
2022/01/05 06:10:08;;;;;;;1.90;1.42;;;;;;;17.63;64.16;97505.38;3083790;28;20692;-53
2022/01/05 06:11:41;;;;;;;0.70;0.63;;;;;;;17.64;64.09;97507.03;3084205;28;20053;-56
2022/01/05 06:13:13;;;;;;;0.77;0.60;;;;;;;17.66;64.11;97509.47;3080636;28;20061;-54
2022/01/05 06:14:45;;;;;;;1.02;0.65;;;;;;;17.66;64.22;97512.13;3086363;28;20054;-53
2022/01/05 06:16:17;;;;;;;1.23;0.65;;;;;;;17.64;64.24;97504.34;3085258;28;20081;-53
2022/01/05 06:17:48;;;;;;;0.77;0.50;;;;;;;17.63;64.23;97502.72;3084533;28;20086;-51
2022/01/05 06:19:20;;;;;;;0.57;0.55;;;;;;;17.63;64.26;97508.06;3086230;28;20046;-53
2022/01/05 06:20:52;;;;;;;0.60;0.60;;;;;;;17.63;64.19;97505.38;3086196;28;20050;-54
2022/01/05 06:22:25;;;;;;;0.55;0.50;;;;;;;17.64;64.05;97507.03;3081669;28;20039;-53
2022/01/05 06:23:57;;;;;;;0.68;0.50;;;;;;;17.66;64.14;97512.13;3085815;28;20046;-56
2022/01/05 06:25:29;;;;;;;4.43;1.08;;;;;;;17.68;64.08;97514.59;3082600;28;20058;-55
2022/01/05 06:27:02;;;;;;;0.85;0.57;;;;;;;17.65;64.08;97508.66;3086433;28;20054;-56
2022/01/05 06:28:34;;;;;;;0.60;0.60;;;;;;;17.65;64.14;97516.69;3088109;28;20050;-55
2022/01/05 06:30:08;;;;;;;0.85;0.77;;;;;;;17.65;64.07;97515.88;3087804;28;20051;-61
2022/01/05 06:31:40;;;;;;;0.73;0.50;;;;;;;17.65;64.14;97516.69;3083796;28;20468;-56
2022/01/05 06:33:11;;;;;;;0.50;0.50;;;;;;;17.63;64.13;97512.59;3088201;28;20054;-54
2022/01/05 06:34:43;;;;;;;1.42;0.77;;;;;;;17.62;64.17;97519.81;3089257;28;20061;-56
2022/01/05 06:36:15;;;;;;;1.75;0.60;;;;;;;17.63;64.14;97513.44;3086402;28;20100;-55
2022/01/05 06:37:47;;;;;;;1.17;0.82;;;;;;;17.63;64.25;97516.13;3083843;28;20412;-54
2022/01/05 06:39:19;;;;;;;0.70;0.60;;;;;;;17.63;64.15;97513.44;3081380;28;20046;-54
2022/01/05 06:40:51;;;;;;;1.40;0.50;;;;;;;17.61;64.24;97512.84;3085375;28;20759;-54
2022/01/05 06:42:24;;;;;;;0.40;0.40;;;;;;;17.61;64.13;97510.16;3083798;28;20062;-56
2022/01/05 06:43:56;;;;;;;2.15;0.70;;;;;;;17.61;64.26;97515.50;3082883;28;20405;-53
2022/01/05 06:45:28;;;;;;;1.10;0.90;;;;;;;17.62;64.13;97510.97;3081261;28;20054;-56
2022/01/05 06:47:00;;;;;;;0.60;0.60;;;;;;;17.59;64.18;97509.53;3080904;28;20059;-56
2022/01/05 06:48:32;;;;;;;0.90;0.80;;;;;;;17.60;64.23;97505.81;3081973;28;20049;-54
2022/01/05 06:50:05;;;;;;;0.57;0.43;;;;;;;17.59;64.18;97503.38;3082404;28;20073;-57
2022/01/05 06:51:36;;;;;;;0.40;0.40;;;;;;;17.58;64.21;97501.75;3081085;28;20043;-56
2022/01/05 06:53:08;;;;;;;1.33;1.10;;;;;;;17.58;64.22;97512.47;3080494;28;20043;-56
2022/01/05 06:54:41;;;;;;;1.00;0.90;;;;;;;17.58;64.29;97509.78;3081199;28;20468;-55
2022/01/05 06:56:15;;;;;;;1.48;0.60;;;;;;;17.58;64.27;97507.91;3078312;28;20050;-51
2022/01/05 06:57:51;;;;;;;1.10;0.68;;;;;;;17.57;64.23;97503.59;3080214;28;20066;-58
2022/01/05 06:59:22;;;;;;;1.35;0.50;;;;;;;17.59;64.28;97509.53;3076974;28;20070;-53
2022/01/05 07:00:55;;;;;;;0.68;0.60;;;;;;;17.58;64.15;97505.25;3084413;28;20047;-57
2022/01/05 07:02:27;;;;;;;0.95;0.60;;;;;;;17.61;64.21;97515.50;3082552;28;20058;-53
2022/01/05 07:03:59;;;;;;;0.50;0.43;;;;;;;17.61;64.26;97503.97;3083504;28;20061;-52
2022/01/05 07:05:32;;;;;;;0.50;0.47;;;;;;;17.62;64.16;97505.59;3078302;28;20097;-59
2022/01/05 07:07:06;;;;;;;2.00;1.10;;;;;;;17.62;64.07;97511.78;3078841;28;20046;-53
2022/01/05 07:08:39;;;;;;;0.77;0.50;;;;;;;17.63;64.04;97505.38;3093633;28;20051;-55
2022/01/05 07:10:12;;;;;;;0.65;0.60;;;;;;;17.63;64.10;97518.81;3082478;28;20046;-56
2022/01/05 07:11:45;;;;;;;0.32;0.30;;;;;;;17.64;64.18;97504.34;3082628;28;20054;-54
2022/01/05 07:13:18;;;;;;;0.63;0.60;;;;;;;17.63;64.16;97501.88;3078974;28;20062;-53
2022/01/05 07:14:50;;;;;;;1.17;0.70;;;;;;;17.64;64.13;97500.84;3082365;28;20055;-56